Time;durP1;ratioP1;P1;durP2;ratioP2;P2;SDS_P1;SDS_P2;PMS_P1;PMS_P2;Temp;Humidity;BMP_temperature;BMP_pressure;BME280_temperature;BME280_humidity;BME280_pressure;Samples;Min_cycle;Max_cycle;Signal;HPM_P1;HPM_P2
2022/01/01 00:02:19;;;;;;;5.50;3.80;;;;;;;9.82;100.00;99294.62;103537;1302;24332;-31
2022/01/01 00:04:47;;;;;;;4.20;2.40;;;;;;;10.07;100.00;99293.11;103521;1302;24300;-31
2022/01/01 00:07:14;;;;;;;2.90;2.60;;;;;;;9.70;100.00;99294.39;103545;1301;24185;-25
2022/01/01 00:09:40;;;;;;;7.40;4.10;;;;;;;9.87;100.00;99293.98;103435;1302;24668;-25
2022/01/01 00:12:06;;;;;;;3.40;1.70;;;;;;;10.37;99.40;99292.55;103488;1302;24418;-31
2022/01/01 00:14:34;;;;;;;6.60;4.50;;;;;;;10.11;99.48;99297.64;103538;1302;22513;-31
2022/01/01 00:16:59;;;;;;;4.80;3.30;;;;;;;10.11;99.78;99294.74;103530;1302;24298;-26
2022/01/01 00:19:25;;;;;;;6.10;2.70;;;;;;;9.82;100.00;99296.63;103502;1302;24318;-30
2022/01/01 00:21:51;;;;;;;4.20;2.90;;;;;;;9.98;100.00;99297.37;103599;1302;24265;-26
2022/01/01 00:24:17;;;;;;;6.90;5.20;;;;;;;10.13;99.71;99298.77;103529;1302;22642;-30
2022/01/01 00:26:43;;;;;;;4.00;2.90;;;;;;;10.11;99.70;99299.95;103505;1300;24316;-25
2022/01/01 00:29:09;;;;;;;4.00;3.00;;;;;;;9.83;99.95;99303.87;103512;1302;24335;-27
2022/01/01 00:31:34;;;;;;;4.00;3.20;;;;;;;9.84;100.00;99316.55;103506;1302;24332;-30
2022/01/01 00:34:00;;;;;;;4.90;3.40;;;;;;;9.74;100.00;99315.17;103493;1302;24377;-32
2022/01/01 00:36:26;;;;;;;3.10;2.40;;;;;;;9.76;100.00;99321.02;103475;1302;24229;-25
2022/01/01 00:38:53;;;;;;;5.00;4.00;;;;;;;9.63;100.00;99324.11;103475;1302;24464;-25
2022/01/01 00:41:19;;;;;;;6.10;2.90;;;;;;;9.82;100.00;99325.11;103545;1302;24346;-30
2022/01/01 00:43:44;;;;;;;7.70;3.60;;;;;;;9.80;100.00;99330.13;103426;1302;24304;-30
2022/01/01 00:46:10;;;;;;;10.10;2.80;;;;;;;9.88;100.00;99329.02;103580;1302;24197;-31
2022/01/01 00:48:36;;;;;;;4.90;4.00;;;;;;;9.92;100.00;99332.45;103499;1302;24371;-25
2022/01/01 00:51:02;;;;;;;3.10;2.50;;;;;;;9.95;100.00;99338.75;103546;1302;24254;-25
2022/01/01 00:53:28;;;;;;;6.00;3.70;;;;;;;9.93;100.00;99340.30;103562;1302;24221;-29
2022/01/01 00:55:54;;;;;;;6.30;3.20;;;;;;;9.65;100.00;99353.17;103580;1302;24371;-31
2022/01/01 00:58:20;;;;;;;6.50;3.90;;;;;;;9.87;100.00;99360.44;103667;1302;24243;-26
2022/01/01 01:00:46;;;;;;;4.00;2.90;;;;;;;9.87;100.00;99361.09;103534;1302;24192;-30
2022/01/01 01:03:12;;;;;;;7.00;6.40;;;;;;;9.89;100.00;99359.34;103509;1302;24332;-30
2022/01/01 01:05:39;;;;;;;8.80;6.90;;;;;;;10.12;99.97;99353.45;103562;1302;24191;-25
2022/01/01 01:08:06;;;;;;;6.40;4.50;;;;;;;10.30;99.33;99366.95;103554;1302;24396;-25
2022/01/01 01:10:32;;;;;;;5.20;3.70;;;;;;;10.00;99.78;99371.61;103470;1302;24280;-30
2022/01/01 01:12:58;;;;;;;4.50;3.30;;;;;;;9.73;100.00;99376.15;103526;1300;24397;-25
2022/01/01 01:15:25;;;;;;;4.50;2.70;;;;;;;10.16;99.93;99380.14;103527;1302;24356;-30
2022/01/01 01:17:52;;;;;;;4.20;2.70;;;;;;;9.99;99.96;99383.21;103530;1301;22722;-29
2022/01/01 01:20:18;;;;;;;5.40;4.00;;;;;;;9.86;100.00;99384.98;103531;1301;24437;-25
2022/01/01 01:22:44;;;;;;;5.90;3.80;;;;;;;10.02;100.00;99394.33;103529;1302;24253;-30
2022/01/01 01:25:11;;;;;;;4.90;2.80;;;;;;;9.81;100.00;99392.24;103534;1301;24298;-30
2022/01/01 01:27:37;;;;;;;7.50;3.90;;;;;;;9.77;100.00;99398.89;103552;1302;24339;-30
2022/01/01 01:30:05;;;;;;;10.00;5.20;;;;;;;9.72;100.00;99398.14;103497;1302;24451;-24
2022/01/01 01:32:31;;;;;;;5.70;3.40;;;;;;;9.96;100.00;99397.66;103546;1302;24226;-27
2022/01/01 01:34:57;;;;;;;3.30;2.20;;;;;;;9.95;100.00;99403.72;103588;1302;24214;-23
2022/01/01 01:37:23;;;;;;;6.50;3.80;;;;;;;9.92;100.00;99404.35;103543;1302;22729;-30
2022/01/01 01:39:49;;;;;;;12.00;3.80;;;;;;;9.98;100.00;99401.93;103524;1301;24335;-30
2022/01/01 01:42:15;;;;;;;14.00;5.90;;;;;;;9.94;100.00;99402.63;103501;1302;24381;-29
2022/01/01 01:44:44;;;;;;;9.00;6.90;;;;;;;10.13;100.00;99406.27;103491;1302;24199;-24
2022/01/01 01:49:39;;;;;;;9.50;5.20;;;;;;;9.65;100.00;99411.11;103581;1302;22511;-25
2022/01/01 01:52:05;;;;;;;7.30;3.50;;;;;;;9.71;100.00;99413.35;103517;1302;22801;-31
2022/01/01 01:54:32;;;;;;;3.70;2.90;;;;;;;9.55;100.00;99419.32;103537;1302;24355;-31
2022/01/01 01:56:58;;;;;;;5.10;3.40;;;;;;;9.56;100.00;99422.14;103600;1302;24282;-31
2022/01/01 01:59:24;;;;;;;4.00;2.10;;;;;;;9.62;100.00;99428.56;103496;1302;24148;-28
2022/01/01 02:01:50;;;;;;;4.30;3.00;;;;;;;9.67;100.00;99429.80;103580;1302;24273;-31
2022/01/01 02:04:16;;;;;;;3.00;2.70;;;;;;;9.67;100.00;99430.96;103502;1302;24333;-31
2022/01/01 02:06:42;;;;;;;3.40;1.80;;;;;;;9.79;100.00;99430.19;103511;1302;24352;-31
2022/01/01 02:09:10;;;;;;;11.80;3.90;;;;;;;9.60;100.00;99433.73;103543;1302;24176;-31
2022/01/01 02:11:36;;;;;;;3.00;2.70;;;;;;;9.76;100.00;99444.77;103572;1302;26155;-31
2022/01/01 02:14:09;;;;;;;3.30;2.00;;;;;;;9.80;100.00;99449.23;103538;1302;24664;-25
2022/01/01 02:16:51;;;;;;;6.00;4.30;;;;;;;9.38;100.00;99448.13;103496;1302;25366;-25
2022/01/01 02:19:22;;;;;;;5.40;2.90;;;;;;;9.87;100.00;99452.20;103518;1302;24200;-31
2022/01/01 02:21:48;;;;;;;4.90;3.10;;;;;;;9.66;100.00;99452.44;103562;1302;24647;-25
2022/01/01 02:24:14;;;;;;;3.70;3.30;;;;;;;9.55;100.00;99451.95;103511;1302;24335;-24
2022/01/01 02:26:40;;;;;;;4.70;2.40;;;;;;;9.69;100.00;99457.42;103536;1301;22506;-31
2022/01/01 02:29:06;;;;;;;5.00;3.40;;;;;;;9.68;100.00;99455.15;103553;1303;24360;-30
2022/01/01 02:31:33;;;;;;;9.80;3.20;;;;;;;9.88;100.00;99452.23;103593;1302;24220;-27
2022/01/01 02:34:03;;;;;;;4.90;2.50;;;;;;;9.86;100.00;99457.58;103527;1302;26149;-30
2022/01/01 02:36:30;;;;;;;7.70;3.20;;;;;;;9.87;100.00;99456.50;103581;1301;24215;-31
2022/01/01 02:38:56;;;;;;;3.20;2.20;;;;;;;9.82;100.00;99454.02;103541;1302;24332;-30
2022/01/01 02:41:22;;;;;;;3.60;2.60;;;;;;;9.88;100.00;99459.86;103498;1302;24253;-30
2022/01/01 02:43:48;;;;;;;3.80;2.70;;;;;;;9.71;100.00;99456.59;103542;1302;24296;-24
2022/01/01 02:46:14;;;;;;;5.10;3.80;;;;;;;9.69;100.00;99461.94;103546;1302;22753;-32
2022/01/01 02:48:44;;;;;;;3.80;2.40;;;;;;;10.11;100.00;99461.25;103604;1302;24326;-29
2022/01/01 02:51:10;;;;;;;4.00;3.10;;;;;;;10.07;100.00;99466.66;103523;1302;22496;-25
2022/01/01 02:53:36;;;;;;;3.00;2.60;;;;;;;10.29;99.99;99461.16;103558;1302;24139;-30
2022/01/01 02:56:02;;;;;;;5.20;3.10;;;;;;;10.32;99.62;99464.42;103562;1300;24296;-24
2022/01/01 02:58:27;;;;;;;13.10;4.20;;;;;;;10.07;100.00;99466.29;103550;1302;24364;-24
2022/01/01 03:00:53;;;;;;;3.70;3.00;;;;;;;10.08;100.00;99462.91;103549;1302;24216;-26
2022/01/01 03:03:19;;;;;;;2.10;1.50;;;;;;;10.10;100.00;99463.05;103596;1302;24351;-28
2022/01/01 03:05:45;;;;;;;5.30;3.00;;;;;;;9.92;100.00;99468.48;103476;1302;24295;-31
2022/01/01 03:08:11;;;;;;;4.40;3.70;;;;;;;9.96;100.00;99466.98;103507;1300;22774;-31
2022/01/01 03:10:37;;;;;;;5.10;2.70;;;;;;;10.30;99.94;99468.08;103547;1302;22514;-27
2022/01/01 03:13:03;;;;;;;4.00;1.90;;;;;;;10.11;100.00;99469.91;103554;1302;24236;-30
2022/01/01 03:15:29;;;;;;;4.30;1.60;;;;;;;10.05;100.00;99469.61;103521;1302;24265;-31
2022/01/01 03:17:56;;;;;;;3.30;1.50;;;;;;;10.12;99.91;99472.20;103573;1302;24163;-33
2022/01/01 03:20:22;;;;;;;5.30;3.30;;;;;;;10.23;99.97;99478.63;103525;1302;22515;-25
2022/01/01 03:22:48;;;;;;;4.00;2.20;;;;;;;10.21;99.94;99472.91;103585;1302;24158;-30
2022/01/01 03:25:14;;;;;;;3.60;2.30;;;;;;;10.23;100.00;99480.45;103460;1303;22744;-26
2022/01/01 03:27:40;;;;;;;8.90;2.40;;;;;;;10.33;99.79;99477.77;103565;1302;22521;-27
2022/01/01 03:30:06;;;;;;;3.10;2.50;;;;;;;10.21;100.00;99475.55;103536;1302;24316;-31
2022/01/01 03:32:32;;;;;;;3.30;3.00;;;;;;;10.03;100.00;99480.24;103523;1302;22782;-29
2022/01/01 03:34:58;;;;;;;5.50;3.80;;;;;;;10.25;100.00;99476.92;103571;1302;24318;-31
2022/01/01 03:37:25;;;;;;;4.20;2.00;;;;;;;10.12;100.00;99483.15;103512;1302;24382;-28
2022/01/01 03:39:51;;;;;;;2.70;2.30;;;;;;;10.03;100.00;99482.34;103549;1302;24843;-24
2022/01/01 03:42:17;;;;;;;1.90;1.40;;;;;;;9.91;100.00;99487.02;103600;1302;24306;-30
2022/01/01 03:44:43;;;;;;;3.10;2.80;;;;;;;9.85;100.00;99484.63;103529;1302;24431;-26
2022/01/01 03:47:09;;;;;;;2.80;2.60;;;;;;;10.16;100.00;99481.19;103536;1302;24346;-30
2022/01/01 03:49:37;;;;;;;3.90;3.60;;;;;;;10.04;100.00;99483.67;103543;1302;24433;-31
2022/01/01 03:52:03;;;;;;;3.70;2.50;;;;;;;10.18;100.00;99484.20;103583;1302;24315;-30
2022/01/01 03:54:29;;;;;;;4.70;3.20;;;;;;;10.28;100.00;99478.35;103563;1302;22627;-24
2022/01/01 03:56:55;;;;;;;5.30;2.00;;;;;;;10.08;100.00;99487.27;103529;1302;24308;-31
2022/01/01 03:59:21;;;;;;;3.10;2.70;;;;;;;9.98;100.00;99487.30;103540;1302;24234;-24
2022/01/01 04:01:47;;;;;;;6.50;5.40;;;;;;;9.92;100.00;99483.85;103511;1302;24169;-31
2022/01/01 04:04:13;;;;;;;4.90;4.50;;;;;;;10.01;100.00;99487.31;103521;1302;24345;-28
2022/01/01 04:06:39;;;;;;;3.30;2.10;;;;;;;10.12;100.00;99493.58;103547;1302;24332;-31
2022/01/01 04:09:04;;;;;;;5.00;3.20;;;;;;;10.13;100.00;99498.44;102886;1302;941887;-24
2022/01/01 04:11:30;;;;;;;7.40;6.70;;;;;;;10.17;100.00;99502.60;103552;1302;22635;-32
2022/01/01 04:13:57;;;;;;;4.90;4.50;;;;;;;10.25;100.00;99501.03;103555;1302;24287;-30
2022/01/01 04:16:23;;;;;;;3.30;2.90;;;;;;;10.03;100.00;99501.84;103536;1302;24225;-30
2022/01/01 04:18:50;;;;;;;4.70;4.10;;;;;;;9.79;100.00;99510.69;103475;1302;24401;-24
2022/01/01 04:21:16;;;;;;;5.00;3.80;;;;;;;9.82;100.00;99512.13;103564;1302;24244;-25
2022/01/01 04:23:43;;;;;;;4.20;3.20;;;;;;;9.99;100.00;99513.31;103541;1302;24295;-24
2022/01/01 04:26:10;;;;;;;8.30;7.50;;;;;;;10.30;100.00;99518.48;103499;1302;24327;-24
2022/01/01 04:28:36;;;;;;;9.10;7.10;;;;;;;10.25;100.00;99525.60;103478;1302;24205;-31
2022/01/01 04:31:02;;;;;;;6.40;5.70;;;;;;;10.19;100.00;99529.34;103564;1302;22515;-28
2022/01/01 04:33:28;;;;;;;4.20;3.80;;;;;;;10.43;99.90;99519.55;103543;1302;24364;-24
2022/01/01 04:35:54;;;;;;;4.30;3.60;;;;;;;10.23;100.00;99529.25;103510;1302;24223;-25
2022/01/01 04:38:35;;;;;;;10.70;7.70;;;;;;;10.17;100.00;99524.65;103450;1302;24354;-30
2022/01/01 04:41:03;;;;;;;4.40;3.60;;;;;;;10.18;100.00;99527.52;103525;1302;24223;-25
2022/01/01 04:43:29;;;;;;;5.90;5.20;;;;;;;10.22;100.00;99526.73;103553;1302;22511;-24
2022/01/01 04:45:55;;;;;;;6.00;5.40;;;;;;;10.28;100.00;99531.13;103529;1302;24209;-30
2022/01/01 04:48:20;;;;;;;6.50;4.90;;;;;;;10.36;100.00;99535.69;103534;1302;22968;-24
2022/01/01 04:50:46;;;;;;;9.70;4.60;;;;;;;10.07;100.00;99536.02;103510;1302;24232;-30
2022/01/01 04:53:16;;;;;;;4.30;3.80;;;;;;;10.12;100.00;99541.45;103520;1302;24346;-30
2022/01/01 04:55:42;;;;;;;5.80;3.40;;;;;;;10.31;100.00;99551.40;103508;1302;24298;-24
2022/01/01 04:58:08;;;;;;;3.90;3.50;;;;;;;10.10;100.00;99553.96;103554;1302;24348;-31
2022/01/01 05:00:34;;;;;;;2.40;2.20;;;;;;;10.08;100.00;99553.28;103591;1302;24186;-25
2022/01/01 05:03:00;;;;;;;3.30;2.50;;;;;;;10.01;100.00;99560.35;103589;1302;24248;-25
2022/01/01 05:05:26;;;;;;;2.60;2.40;;;;;;;10.06;100.00;99558.54;103523;1302;24196;-31
2022/01/01 05:07:52;;;;;;;5.80;5.20;;;;;;;10.24;100.00;99555.83;103560;1302;24313;-28
2022/01/01 05:10:18;;;;;;;5.90;4.30;;;;;;;10.23;100.00;99565.36;103529;1302;24185;-24
2022/01/01 05:12:44;;;;;;;3.30;2.10;;;;;;;10.25;99.98;99565.63;103470;1302;24188;-30
2022/01/01 05:15:10;;;;;;;2.30;2.00;;;;;;;10.14;100.00;99571.35;103561;1302;22625;-25
2022/01/01 05:17:36;;;;;;;7.50;3.00;;;;;;;10.44;99.78;99566.77;103515;1302;24250;-24
2022/01/01 05:20:03;;;;;;;4.50;4.10;;;;;;;10.03;100.00;99579.31;103484;1302;24316;-25
2022/01/01 05:22:29;;;;;;;2.40;2.20;;;;;;;10.26;100.00;99579.85;103517;1302;22512;-30
2022/01/01 05:24:59;;;;;;;3.30;2.60;;;;;;;9.96;100.00;99582.09;103570;1302;22505;-25
2022/01/01 05:27:26;;;;;;;5.20;2.30;;;;;;;9.89;100.00;99584.42;103508;1302;24290;-30
2022/01/01 05:29:53;;;;;;;8.20;5.20;;;;;;;9.90;100.00;99579.77;103494;1302;24253;-30
2022/01/01 05:32:19;;;;;;;4.90;2.70;;;;;;;10.18;100.00;99585.70;103622;1302;22509;-24
2022/01/01 05:34:45;;;;;;;3.50;3.10;;;;;;;10.15;100.00;99581.20;103638;1302;24308;-24
2022/01/01 05:37:11;;;;;;;4.70;3.40;;;;;;;10.27;100.00;99582.58;103620;1302;24264;-24
2022/01/01 05:39:37;;;;;;;3.80;3.00;;;;;;;10.02;99.91;99586.62;103536;1302;24244;-30
2022/01/01 05:42:03;;;;;;;4.20;3.20;;;;;;;9.93;100.00;99591.78;103564;1302;24139;-30
2022/01/01 05:44:29;;;;;;;4.50;3.10;;;;;;;9.80;100.00;99593.52;103539;1302;24165;-30
2022/01/01 05:46:55;;;;;;;4.60;2.80;;;;;;;10.05;100.00;99599.27;103568;1302;24534;-24
2022/01/01 05:49:21;;;;;;;4.50;3.80;;;;;;;10.19;99.97;99598.27;103506;1301;24407;-24
2022/01/01 05:51:47;;;;;;;4.70;3.00;;;;;;;9.97;100.00;99606.09;103505;1302;24226;-29
2022/01/01 05:54:13;;;;;;;8.70;2.60;;;;;;;10.07;99.99;99603.11;103402;1303;24423;-30
2022/01/01 05:56:39;;;;;;;5.90;5.00;;;;;;;10.25;99.86;99604.52;103507;1300;24302;-30
2022/01/01 05:59:05;;;;;;;3.40;2.40;;;;;;;10.08;99.71;99606.35;103547;1300;24327;-29
2022/01/01 06:01:31;;;;;;;3.60;2.80;;;;;;;10.08;100.00;99598.54;103572;1300;22785;-25
2022/01/01 06:03:57;;;;;;;4.20;2.90;;;;;;;9.99;100.00;99597.65;103605;1300;24257;-25
2022/01/01 06:06:23;;;;;;;3.10;2.20;;;;;;;9.89;100.00;99600.48;103629;1300;24322;-24
2022/01/01 06:08:50;;;;;;;5.20;3.00;;;;;;;9.84;100.00;99607.16;103584;1300;24249;-24
2022/01/01 06:11:15;;;;;;;5.50;4.20;;;;;;;9.99;100.00;99612.52;103555;1300;24218;-30
2022/01/01 06:13:41;;;;;;;3.60;2.90;;;;;;;9.82;100.00;99615.17;103511;1300;24234;-30
2022/01/01 06:16:08;;;;;;;2.80;1.90;;;;;;;9.77;100.00;99613.91;103539;1303;24710;-24
2022/01/01 06:18:33;;;;;;;3.50;3.10;;;;;;;9.89;100.00;99615.77;103595;1300;24291;-30
2022/01/01 06:21:02;;;;;;;2.60;1.80;;;;;;;9.94;100.00;99620.35;103577;1300;22645;-30
2022/01/01 06:23:28;;;;;;;2.30;1.90;;;;;;;9.72;100.00;99624.20;103621;1300;24307;-30
2022/01/01 06:25:54;;;;;;;1.90;1.20;;;;;;;9.61;100.00;99626.03;103528;1300;24466;-30
2022/01/01 06:28:19;;;;;;;3.90;1.50;;;;;;;9.76;100.00;99633.58;103624;1303;24182;-29
2022/01/01 06:30:45;;;;;;;1.10;0.90;;;;;;;9.67;100.00;99632.48;103580;1300;22505;-31
2022/01/01 06:33:12;;;;;;;2.00;1.30;;;;;;;9.53;100.00;99636.67;103571;1300;24346;-30
2022/01/01 06:35:39;;;;;;;2.40;2.00;;;;;;;9.87;100.00;99636.30;103626;1301;22892;-25
2022/01/01 06:38:05;;;;;;;1.80;1.40;;;;;;;9.75;100.00;99636.86;103538;1300;24153;-25
2022/01/01 06:40:31;;;;;;;1.50;1.00;;;;;;;9.44;100.00;99640.67;103572;1300;24272;-30
2022/01/01 06:42:57;;;;;;;1.90;1.10;;;;;;;9.56;100.00;99644.61;103593;1300;22752;-30
2022/01/01 06:45:23;;;;;;;6.30;1.70;;;;;;;9.60;100.00;99640.70;103556;1300;24305;-25
2022/01/01 06:47:48;;;;;;;1.30;0.80;;;;;;;9.96;100.00;99644.75;103547;1303;24230;-30
2022/01/01 06:50:14;;;;;;;1.90;1.10;;;;;;;9.72;100.00;99648.11;103555;1303;24320;-30
2022/01/01 06:52:42;;;;;;;1.60;1.20;;;;;;;9.77;100.00;99654.23;103547;1300;24409;-26
2022/01/01 06:55:09;;;;;;;1.70;1.10;;;;;;;9.60;100.00;99662.65;103571;1302;24609;-26
2022/01/01 06:57:35;;;;;;;2.20;1.60;;;;;;;9.80;100.00;99665.75;103512;1302;24403;-25
2022/01/01 07:00:00;;;;;;;2.10;1.40;;;;;;;9.92;100.00;99667.16;103516;1302;24331;-25
2022/01/01 07:02:26;;;;;;;2.80;2.50;;;;;;;10.02;100.00;99672.83;103525;1302;24289;-25
2022/01/01 07:04:52;;;;;;;3.20;1.60;;;;;;;10.02;100.00;99675.16;103503;1302;24287;-26
2022/01/01 07:07:18;;;;;;;2.10;1.60;;;;;;;9.70;100.00;99675.42;103535;1302;24220;-30
2022/01/01 07:09:44;;;;;;;8.60;3.00;;;;;;;10.05;100.00;99667.45;103445;1302;24161;-31
2022/01/01 07:12:10;;;;;;;2.10;1.40;;;;;;;9.97;100.00;99668.81;103520;1302;24371;-25
2022/01/01 07:14:36;;;;;;;1.40;1.00;;;;;;;9.73;100.00;99673.25;103546;1302;24401;-30
2022/01/01 07:17:02;;;;;;;1.60;1.30;;;;;;;9.91;100.00;99682.23;103536;1302;24246;-24
2022/01/01 07:19:28;;;;;;;1.50;1.40;;;;;;;9.85;100.00;99684.52;103537;1302;22642;-25
2022/01/01 07:21:59;;;;;;;1.80;1.20;;;;;;;9.87;100.00;99686.23;103473;1301;24395;-24
2022/01/01 07:24:26;;;;;;;2.40;1.70;;;;;;;9.57;100.00;99686.21;103545;1302;24419;-25
2022/01/01 07:26:52;;;;;;;2.30;1.40;;;;;;;9.87;100.00;99695.02;103550;1302;24301;-29
2022/01/01 07:29:18;;;;;;;6.40;0.60;;;;;;;9.85;100.00;99693.49;103489;1302;24237;-25
2022/01/01 07:31:45;;;;;;;5.80;1.70;;;;;;;9.90;100.00;99700.21;103484;1302;24250;-29
2022/01/01 07:34:11;;;;;;;3.20;1.10;;;;;;;9.96;100.00;99700.59;103515;1302;24212;-24
2022/01/01 07:36:37;;;;;;;1.10;0.90;;;;;;;9.87;100.00;99701.62;103470;1302;24317;-24
2022/01/01 07:39:03;;;;;;;3.30;1.70;;;;;;;9.70;100.00;99703.73;103591;1301;24372;-30
2022/01/01 07:41:29;;;;;;;1.50;1.20;;;;;;;9.57;100.00;99695.94;103507;1302;24189;-24
2022/01/01 07:43:55;;;;;;;1.10;1.00;;;;;;;9.77;100.00;99702.65;103567;1302;22830;-30
2022/01/01 07:46:20;;;;;;;2.30;1.90;;;;;;;9.69;100.00;99708.38;103560;1302;22639;-27
2022/01/01 07:48:46;;;;;;;2.30;1.50;;;;;;;9.91;100.00;99709.12;103531;1302;24204;-24
2022/01/01 07:51:12;;;;;;;2.10;1.40;;;;;;;10.00;100.00;99711.14;103561;1302;24167;-31
2022/01/01 07:53:38;;;;;;;1.80;1.50;;;;;;;9.91;100.00;99714.63;103534;1302;24390;-30
2022/01/01 07:56:04;;;;;;;3.00;2.10;;;;;;;10.06;100.00;99715.77;103551;1302;23891;-30
2022/01/01 07:58:31;;;;;;;2.60;2.20;;;;;;;10.00;99.99;99720.66;103562;1301;22509;-25
2022/01/01 08:00:57;;;;;;;3.40;3.00;;;;;;;10.16;100.00;99720.89;103546;1302;24213;-30
2022/01/01 08:03:23;;;;;;;3.20;2.60;;;;;;;10.21;99.93;99725.56;103516;1302;24207;-29
2022/01/01 08:05:49;;;;;;;3.80;2.00;;;;;;;10.12;99.99;99723.41;103524;1302;22527;-30
2022/01/01 08:08:15;;;;;;;4.10;2.30;;;;;;;10.06;100.00;99724.39;103575;1302;24317;-26
2022/01/01 08:10:41;;;;;;;6.50;3.50;;;;;;;9.98;100.00;99725.18;103482;1302;24659;-30
2022/01/01 08:13:09;;;;;;;1.70;1.50;;;;;;;10.05;100.00;99725.77;103564;1302;24219;-24
2022/01/01 08:15:34;;;;;;;1.70;1.20;;;;;;;10.03;100.00;99728.15;103555;1302;24221;-30
2022/01/01 08:18:01;;;;;;;9.10;2.30;;;;;;;10.15;100.00;99727.27;103550;1302;24321;-29
2022/01/01 08:20:27;;;;;;;4.90;1.50;;;;;;;9.98;100.00;99720.65;103581;1302;24355;-33
2022/01/01 08:22:53;;;;;;;3.90;2.50;;;;;;;9.89;100.00;99718.54;103482;1302;24215;-24
2022/01/01 08:25:20;;;;;;;3.20;2.30;;;;;;;9.97;100.00;99721.38;103534;1302;24196;-34
2022/01/01 08:27:46;;;;;;;3.10;1.60;;;;;;;10.00;100.00;99726.23;103669;1302;24175;-33
2022/01/01 08:30:14;;;;;;;5.00;2.30;;;;;;;10.15;100.00;99731.58;103641;1302;22766;-25
2022/01/01 08:32:41;;;;;;;1.90;1.20;;;;;;;10.24;100.00;99734.02;103604;1301;24186;-30
2022/01/01 08:35:07;;;;;;;2.90;1.30;;;;;;;10.03;100.00;99733.84;103546;1302;22911;-23
2022/01/01 08:37:33;;;;;;;2.90;1.40;;;;;;;9.83;100.00;99732.89;103568;1302;24203;-30
2022/01/01 08:39:59;;;;;;;2.30;1.50;;;;;;;9.92;100.00;99738.02;103473;1302;24289;-30
2022/01/01 08:42:25;;;;;;;1.40;1.10;;;;;;;10.10;100.00;99742.52;103504;1302;22517;-25
2022/01/01 08:44:51;;;;;;;2.00;1.50;;;;;;;9.97;100.00;99748.04;103541;1302;24312;-31
2022/01/01 08:47:17;;;;;;;1.80;1.40;;;;;;;9.95;100.00;99752.31;103446;1303;24349;-24
2022/01/01 08:49:43;;;;;;;2.30;1.30;;;;;;;9.98;99.99;99755.89;103596;1302;24295;-23
2022/01/01 08:52:11;;;;;;;1.30;0.90;;;;;;;9.92;100.00;99756.38;103501;1302;24264;-24
2022/01/01 08:54:37;;;;;;;2.80;1.60;;;;;;;10.00;100.00;99756.91;103596;1302;22911;-27
2022/01/01 08:57:03;;;;;;;2.80;1.90;;;;;;;9.87;100.00;99758.86;103524;1302;24297;-30
2022/01/01 08:59:29;;;;;;;2.60;2.00;;;;;;;9.94;100.00;99763.23;103576;1302;24383;-25
2022/01/01 09:01:55;;;;;;;3.90;1.80;;;;;;;9.97;100.00;99759.14;103595;1302;24270;-31
2022/01/01 09:04:21;;;;;;;3.30;2.40;;;;;;;9.96;100.00;99764.99;103418;1302;24185;-26
2022/01/01 09:06:47;;;;;;;4.40;3.30;;;;;;;10.20;99.90;99772.85;103521;1302;22518;-31
2022/01/01 09:09:13;;;;;;;4.80;3.10;;;;;;;10.10;100.00;99780.07;103564;1302;22512;-25
2022/01/01 09:11:39;;;;;;;3.80;2.00;;;;;;;10.12;99.86;99774.47;103551;1302;22509;-30
2022/01/01 09:14:05;;;;;;;7.10;2.10;;;;;;;10.17;99.84;99781.98;103485;1302;22561;-30
2022/01/01 09:16:32;;;;;;;4.10;2.00;;;;;;;10.25;98.98;99782.33;103397;1303;24340;-23
2022/01/01 09:18:58;;;;;;;5.00;2.00;;;;;;;10.27;98.84;99787.71;103465;1302;24493;-30
2022/01/01 09:21:26;;;;;;;3.70;2.00;;;;;;;10.27;98.73;99794.19;103549;1302;24214;-32
2022/01/01 09:23:55;;;;;;;1.90;1.60;;;;;;;9.92;99.98;99796.92;103531;1302;22823;-26
2022/01/01 09:26:21;;;;;;;2.30;1.70;;;;;;;9.99;99.95;99798.20;103600;1302;22635;-24
2022/01/01 09:28:47;;;;;;;5.20;1.70;;;;;;;10.15;99.23;99801.73;103495;1302;24226;-26
2022/01/01 09:31:13;;;;;;;1.70;1.30;;;;;;;10.25;98.38;99805.55;103524;1302;24350;-30
2022/01/01 09:33:39;;;;;;;6.40;2.60;;;;;;;10.23;98.33;99803.89;103493;1301;24384;-30
2022/01/01 09:36:05;;;;;;;5.70;4.30;;;;;;;10.10;98.75;99801.54;103515;1302;22839;-30
2022/01/01 09:38:32;;;;;;;6.10;2.90;;;;;;;10.19;98.24;99813.70;103553;1302;24177;-24
2022/01/01 09:40:58;;;;;;;2.90;2.70;;;;;;;10.08;98.75;99813.80;103514;1302;24166;-26
2022/01/01 09:43:27;;;;;;;2.50;2.30;;;;;;;10.30;98.06;99813.11;103537;1300;24306;-30
2022/01/01 09:45:53;;;;;;;8.60;3.50;;;;;;;10.25;97.99;99815.19;103558;1302;24239;-30
2022/01/01 09:48:21;;;;;;;6.30;2.20;;;;;;;10.25;98.52;99820.35;103524;1302;24202;-29
2022/01/01 09:50:52;;;;;;;12.20;1.70;;;;;;;10.39;97.70;99819.05;103565;1302;25364;-24
2022/01/01 09:53:18;;;;;;;5.40;2.80;;;;;;;10.36;97.91;99823.84;103548;1302;24224;-31
2022/01/01 09:55:44;;;;;;;5.80;3.10;;;;;;;10.78;95.73;99820.59;103552;1302;24205;-30
2022/01/01 09:58:10;;;;;;;6.40;3.60;;;;;;;10.70;94.89;99824.91;103551;1302;24180;-30
2022/01/01 10:00:35;;;;;;;5.60;3.40;;;;;;;10.52;95.76;99821.41;103602;1302;22517;-24
2022/01/01 10:03:01;;;;;;;3.80;2.20;;;;;;;10.58;95.75;99824.21;103520;1302;24196;-24
2022/01/01 10:05:27;;;;;;;4.90;3.40;;;;;;;10.75;94.80;99828.50;103477;1302;22527;-30
2022/01/01 10:07:53;;;;;;;3.60;2.60;;;;;;;10.43;96.15;99826.98;103564;1302;24387;-26
2022/01/01 10:10:22;;;;;;;10.20;4.90;;;;;;;10.55;95.91;99823.76;103645;1300;22518;-26
2022/01/01 10:12:48;;;;;;;5.00;2.60;;;;;;;10.63;95.23;99825.77;103748;1302;24316;-32
2022/01/01 10:15:15;;;;;;;3.00;2.40;;;;;;;10.67;95.40;99828.31;103599;1302;24217;-26
2022/01/01 10:17:41;;;;;;;1.70;1.60;;;;;;;10.26;96.78;99828.32;103729;1302;22952;-27
2022/01/01 10:20:07;;;;;;;11.20;2.80;;;;;;;10.14;97.98;99831.45;103671;1302;24177;-26
2022/01/01 10:22:34;;;;;;;4.60;2.40;;;;;;;10.22;97.91;99835.71;103630;1302;24296;-31
2022/01/01 10:30:04;;;;;;;4.10;2.00;;;;;;;10.02;98.39;99837.91;103593;1302;23895;-31
2022/01/01 10:32:29;;;;;;;2.80;2.00;;;;;;;10.12;98.17;99834.43;103588;1302;24306;-25
2022/01/01 10:34:56;;;;;;;9.70;2.90;;;;;;;10.00;98.42;99824.71;103615;1302;24271;-30
2022/01/01 10:37:27;;;;;;;4.60;2.50;;;;;;;10.15;97.76;99826.58;103631;1302;24231;-25
2022/01/01 10:39:54;;;;;;;3.00;2.00;;;;;;;10.08;98.02;99830.08;103586;1302;24205;-31
2022/01/01 10:42:20;;;;;;;5.10;2.80;;;;;;;10.30;96.91;99833.02;103589;1302;24176;-29
2022/01/01 10:44:46;;;;;;;10.30;2.70;;;;;;;10.01;98.21;99835.34;103558;1302;22808;-24
2022/01/01 10:47:15;;;;;;;3.30;2.00;;;;;;;9.99;98.67;99838.47;103526;1302;24171;-30
2022/01/01 10:52:12;;;;;;;6.40;3.60;;;;;;;10.30;97.92;99845.47;103639;1302;24202;-24
2022/01/01 10:54:38;;;;;;;3.20;2.30;;;;;;;10.14;98.23;99849.54;103532;1302;24263;-25
2022/01/01 10:57:08;;;;;;;3.00;2.30;;;;;;;10.17;99.08;99851.31;103561;1302;24222;-25
2022/01/01 10:59:38;;;;;;;4.40;2.70;;;;;;;10.22;98.60;99845.23;103582;1302;24408;-30
2022/01/01 11:02:06;;;;;;;7.80;5.00;;;;;;;9.92;100.00;99848.89;103531;1302;24223;-31
2022/01/01 11:04:33;;;;;;;10.60;5.40;;;;;;;9.66;100.00;99843.73;103625;1302;24216;-30
2022/01/01 11:07:00;;;;;;;13.20;8.10;;;;;;;9.83;100.00;99849.28;103528;1302;22522;-30
2022/01/01 11:09:26;;;;;;;26.60;12.00;;;;;;;10.00;100.00;99851.29;103535;1302;24255;-25
2022/01/01 11:11:52;;;;;;;31.40;12.80;;;;;;;9.95;100.00;99854.67;103579;1302;22772;-30
2022/01/01 11:14:18;;;;;;;55.30;24.00;;;;;;;9.65;100.00;99854.08;103696;1302;24214;-29
2022/01/01 11:16:44;;;;;;;105.50;32.70;;;;;;;9.75;100.00;99855.17;103535;1302;24179;-25
2022/01/01 11:19:10;;;;;;;29.40;11.90;;;;;;;9.86;100.00;99853.91;103649;1302;24253;-30
2022/01/01 11:21:36;;;;;;;24.80;9.70;;;;;;;10.00;99.94;99853.56;103590;1302;24353;-25
2022/01/01 11:24:02;;;;;;;41.30;14.70;;;;;;;9.96;100.00;99850.77;103489;1300;24193;-25
2022/01/01 11:26:28;;;;;;;27.20;14.90;;;;;;;10.29;98.34;99847.46;103560;1301;24224;-27
2022/01/01 11:28:54;;;;;;;23.70;9.10;;;;;;;10.17;98.80;99843.80;103552;1302;24166;-30